39.9°F
Current conditions from King Hill
Updated every 5 minutes
 
  Saturday April 19, 2014

Station Historical Data
Daily Summary for April 18, 2010 Units:  Metric    English   Both
« Previous Day
Next Day »
Daily Weekly Monthly Yearly Custom
  High: Low: Average:
Temperature: 6 °C 1.3 °C 3.7 °C
Dew Point: 4.3 °C 0.6 °C 2.4 °C
Humidity: 95% 80% 91%
Wind Speed: 12.9km/h 1.6km/h 4.8km/h
Wind Gust: 27.4km/h - -
Wind- - West
Pressure: 1011.4 hPa 1007.3 hPa -
Precipitation: 6.4 mm    
Historical Graphs
 
 
Tabular Data for April 18, 2010
Time Temperature Dew Point Pressure Wind Wind Speed Wind Gust Humidity Daily Rainfall
00:07 3.6 °C 2.7 °C 1008 hPa NW 1.6 km/h 8 km/h 94% 0 mm
00:12 3.6 °C 2.7 °C 1008 hPa WNW 4.8 km/h 8 km/h 94% 0 mm
00:17 3.5 °C 2.6 °C 1008 hPa NW 4.8 km/h 11.3 km/h 94% 0.3 mm
00:37 3.4 °C 2.5 °C 1008 hPa NNW 1.6 km/h 8 km/h 94% 0.3 mm
00:47 3.4 °C 2.5 °C 1008 hPa WNW 4.8 km/h 12.9 km/h 94% 0.5 mm
00:57 3.4 °C 2.5 °C 1008 hPa North 1.6 km/h 14.5 km/h 94% 0.5 mm
01:02 3.3 °C 2.4 °C 1008 hPa NW 3.2 km/h 14.5 km/h 94% 0.8 mm
01:07 3.3 °C 2.4 °C 1008 hPa NW 1.6 km/h 9.7 km/h 94% 0.8 mm
01:17 3.2 °C 2.3 °C 1007.7 hPa NW 3.2 km/h 8 km/h 94% 0.8 mm
01:22 3.2 °C 2.3 °C 1007.7 hPa NNW 4.8 km/h 12.9 km/h 94% 0.8 mm
01:27 3.2 °C 2.3 °C 1007.7 hPa NW 4.8 km/h 12.9 km/h 94% 0.8 mm
01:32 3.2 °C 2.3 °C 1007.7 hPa NNW 3.2 km/h 12.9 km/h 94% 0.8 mm
01:37 3.2 °C 2.3 °C 1007.7 hPa NNW 4.8 km/h 12.9 km/h 94% 0.8 mm
01:42 3.2 °C 2.3 °C 1007.7 hPa NNW 4.8 km/h 14.5 km/h 94% 0.8 mm
01:47 3.2 °C 2.3 °C 1007.7 hPa WNW 3.2 km/h 14.5 km/h 94% 0.8 mm
01:52 3.2 °C 2.3 °C 1007.7 hPa NW 3.2 km/h 12.9 km/h 94% 0.8 mm
01:57 3.2 °C 2.3 °C 1007.7 hPa WNW 4.8 km/h 9.7 km/h 94% 0.8 mm
02:12 3.2 °C 2.3 °C 1007.3 hPa WNW 4.8 km/h 12.9 km/h 94% 0.8 mm
02:17 3.2 °C 2.3 °C 1007.3 hPa NW 4.8 km/h 12.9 km/h 94% 0.8 mm
02:22 3.2 °C 2.3 °C 1007.3 hPa NW 6.4 km/h 11.3 km/h 94% 1 mm
02:32 3.2 °C 2.3 °C 1007.3 hPa NW 4.8 km/h 9.7 km/h 94% 1 mm
02:37 3.2 °C 2.3 °C 1007.3 hPa NW 6.4 km/h 12.9 km/h 94% 1 mm
02:42 3.2 °C 2.3 °C 1007.3 hPa NW 9.7 km/h 16.1 km/h 94% 1 mm
02:47 3.1 °C 2.2 °C 1007.3 hPa NW 8 km/h 16.1 km/h 94% 1 mm
02:52 3 °C 2.1 °C 1007.3 hPa NW 4.8 km/h 14.5 km/h 94% 1 mm
02:57 3 °C 2.1 °C 1007.3 hPa NNW 3.2 km/h 14.5 km/h 94% 1 mm
03:02 2.9 °C 2.1 °C 1007.3 hPa NNW 6.4 km/h 12.9 km/h 94% 1 mm
03:07 2.9 °C 2 °C 1007.3 hPa Calm   12.9 km/h 94% 1 mm
03:17 2.8 °C 2.1 °C 1007.3 hPa NW 8 km/h 11.3 km/h 95% 1 mm
03:22 2.8 °C 2.1 °C 1007.3 hPa NW 4.8 km/h 11.3 km/h 95% 1 mm
03:27 2.7 °C 1.8 °C 1007.3 hPa NW 4.8 km/h 11.3 km/h 94% 1 mm
03:37 2.7 °C 1.9 °C 1007.3 hPa NW 6.4 km/h 12.9 km/h 95% 1 mm
03:42 2.6 °C 1.9 °C 1007.3 hPa NW 8 km/h 16.1 km/h 95% 1 mm
03:52 2.4 °C 1.6 °C 1007.3 hPa NW 4.8 km/h 17.7 km/h 94% 1 mm
03:57 2.4 °C 1.7 °C 1007.3 hPa NW 6.4 km/h 16.1 km/h 95% 1 mm
04:07 2.4 °C 1.7 °C 1007.3 hPa NNW 3.2 km/h 12.9 km/h 95% 1 mm
04:12 2.4 °C 1.7 °C 1007.7 hPa NW 1.6 km/h 9.7 km/h 95% 1 mm
04:17 2.4 °C 1.7 °C 1007.7 hPa NW 6.4 km/h 11.3 km/h 95% 1 mm
04:27 2.3 °C 1.6 °C 1007.3 hPa WNW 4.8 km/h 14.5 km/h 95% 1 mm
04:32 2.3 °C 1.6 °C 1007.3 hPa NW 8 km/h 14.5 km/h 95% 1 mm
04:37 2.3 °C 1.6 °C 1007.3 hPa NW 6.4 km/h 12.9 km/h 95% 1 mm
04:47 2.2 °C 1.5 °C 1007.3 hPa NNW 1.6 km/h 11.3 km/h 95% 1 mm
04:52 2.2 °C 1.5 °C 1007.7 hPa North 4.8 km/h 16.1 km/h 95% 1 mm
05:07 2.1 °C 1.3 °C 1007.7 hPa NNW 1.6 km/h 12.9 km/h 95% 1 mm
05:12 2 °C 1.3 °C 1007.7 hPa NNW 4.8 km/h 9.7 km/h 95% 1 mm
05:17 2 °C 1.3 °C 1007.7 hPa NNW 3.2 km/h 9.7 km/h 95% 1 mm
05:22 1.9 °C 1.2 °C 1007.3 hPa NW 8 km/h 12.9 km/h 95% 1 mm
05:27 1.8 °C 1.1 °C 1007.3 hPa NNW 3.2 km/h 12.9 km/h 95% 1 mm
05:32 1.8 °C 1.1 °C 1007.7 hPa Calm   8 km/h 95% 1 mm
05:37 1.7 °C 1 °C 1007.7 hPa NNW 4.8 km/h 9.7 km/h 95% 1 mm
05:42 1.7 °C 1 °C 1007.7 hPa NW 1.6 km/h 9.7 km/h 95% 1 mm
05:47 1.7 °C 1 °C 1007.7 hPa NW 1.6 km/h 4.8 km/h 95% 1 mm
05:57 1.7 °C 0.9 °C 1008 hPa NNW 3.2 km/h 12.9 km/h 95% 1 mm
06:02 1.6 °C 0.9 °C 1008 hPa North 3.2 km/h 12.9 km/h 95% 1 mm
06:12 1.5 °C 0.8 °C 1008 hPa NNW 4.8 km/h 11.3 km/h 95% 1 mm
06:17 1.4 °C 0.7 °C 1008 hPa North 1.6 km/h 11.3 km/h 95% 1 mm
06:32 1.3 °C 0.6 °C 1008 hPa NNW 1.6 km/h 6.4 km/h 95% 1 mm
06:37 1.3 °C 0.6 °C 1008.4 hPa NNE 1.6 km/h 8 km/h 95% 1 mm
06:42 1.3 °C 0.6 °C 1008.4 hPa Calm   8 km/h 95% 1 mm
06:47 1.3 °C 0.6 °C 1008.4 hPa NNW 1.6 km/h 6.4 km/h 95% 1 mm
06:52 1.3 °C 0.6 °C 1008.4 hPa NNW 1.6 km/h 6.4 km/h 95% 1 mm
06:57 1.3 °C 0.6 °C 1008.4 hPa Calm   4.8 km/h 95% 1 mm
07:02 1.3 °C 0.6 °C 1008.4 hPa Calm   9.7 km/h 95% 1 mm
07:07 1.3 °C 0.6 °C 1008.7 hPa Calm   9.7 km/h 95% 1 mm
07:12 1.4 °C 0.7 °C 1008.7 hPa NNE 3.2 km/h 8 km/h 95% 1 mm
07:17 1.5 °C 0.8 °C 1008.7 hPa NNE 1.6 km/h 8 km/h 95% 1 mm
07:22 1.5 °C 0.8 °C 1009 hPa NNE 1.6 km/h 6.4 km/h 95% 1 mm
07:27 1.6 °C 0.8 °C 1009 hPa NNE 1.6 km/h 6.4 km/h 95% 1 mm
07:32 1.6 °C 0.8 °C 1009 hPa Calm   6.4 km/h 95% 1 mm
07:37 1.6 °C 0.9 °C 1009 hPa Calm   6.4 km/h 95% 1 mm
07:52 1.7 °C 1 °C 1009 hPa NNW 1.6 km/h 8 km/h 95% 1 mm
07:57 1.7 °C 1 °C 1009 hPa North 1.6 km/h 8 km/h 95% 1 mm
08:02 1.7 °C 1 °C 1009 hPa NNE 3.2 km/h 8 km/h 95% 1 mm
08:07 1.7 °C 0.9 °C 1009 hPa Calm   4.8 km/h 95% 1 mm
08:12 1.8 °C 1.1 °C 1009.4 hPa Calm   4.8 km/h 95% 1 mm
08:17 1.9 °C 1.2 °C 1009.4 hPa North 1.6 km/h 6.4 km/h 95% 1 mm
08:27 1.9 °C 1.2 °C 1009.4 hPa NNE 1.6 km/h 8 km/h 95% 1 mm
08:37 1.9 °C 1.2 °C 1009.4 hPa NW 4.8 km/h 8 km/h 95% 1 mm
08:42 1.9 °C 1.2 °C 1009.4 hPa Calm   8 km/h 95% 1 mm
08:47 2.1 °C 1.4 °C 1009.4 hPa NNE 3.2 km/h 6.4 km/h 95% 1 mm
08:57 2.2 °C 1.5 °C 1009.4 hPa NNE 1.6 km/h 6.4 km/h 95% 1 mm
09:07 2.4 °C 1.5 °C 1009.4 hPa North 1.6 km/h 6.4 km/h 94% 1 mm
09:12 2.4 °C 1.5 °C 1009.4 hPa North 1.6 km/h 6.4 km/h 94% 1 mm
09:17 2.4 °C 1.4 °C 1009.4 hPa North 1.6 km/h 6.4 km/h 93% 1 mm
09:27 2.6 °C 1.6 °C 1009.4 hPa North 3.2 km/h 4.8 km/h 93% 1 mm
09:37 2.7 °C 1.6 °C 1009.4 hPa NW 3.2 km/h 9.7 km/h 92% 1 mm
09:42 2.6 °C 1.3 °C 1009.7 hPa WNW 3.2 km/h 6.4 km/h 91% 1 mm
09:57 2.8 °C 1.3 °C 1009.7 hPa NW 1.6 km/h 8 km/h 90% 1 mm
10:02 2.7 °C 1.1 °C 1009.7 hPa Calm   8 km/h 89% 1 mm
10:07 2.8 °C 1.2 °C 1009.7 hPa Calm   4.8 km/h 89% 1 mm
10:12 2.9 °C 1.3 °C 1009.7 hPa NW 1.6 km/h 6.4 km/h 89% 1 mm
10:17 2.9 °C 1.2 °C 1009.7 hPa NW 4.8 km/h 6.4 km/h 88% 1 mm
10:22 2.9 °C 1.2 °C 1009.7 hPa NW 1.6 km/h 6.4 km/h 88% 1 mm
10:27 2.9 °C 1.2 °C 1010 hPa NW 1.6 km/h 6.4 km/h 88% 1 mm
10:32 3.1 °C 1.3 °C 1010 hPa Calm   6.4 km/h 88% 1 mm
10:37 3 °C 1.1 °C 1010 hPa WNW 1.6 km/h 9.7 km/h 87% 1 mm
11:02 3.5 °C 1.4 °C 1009.7 hPa WNW 3.2 km/h 8 km/h 86% 1 mm
11:07 3.7 °C 1.8 °C 1009.7 hPa Calm   8 km/h 87% 1 mm
11:17 4.1 °C 1.7 °C 1009.7 hPa West 4.8 km/h 9.7 km/h 84% 1 mm
11:22 4.2 °C 1.4 °C 1009.7 hPa Calm   8 km/h 82% 1 mm
11:27 4.3 °C 1.9 °C 1009.7 hPa NW 1.6 km/h 8 km/h 84% 1 mm
11:32 4.3 °C 1.7 °C 1009.7 hPa NW 3.2 km/h 9.7 km/h 83% 1 mm
11:42 4.2 °C 1.6 °C 1009.4 hPa NW 4.8 km/h 11.3 km/h 83% 1 mm
12:02 4.7 °C 1.8 °C 1009.4 hPa NNW 3.2 km/h 8 km/h 82% 1 mm
12:17 5.2 °C 2 °C 1009 hPa West 3.2 km/h 11.3 km/h 80% 1 mm
12:22 5.3 °C 2.6 °C 1009 hPa WNW 4.8 km/h 11.3 km/h 83% 1 mm
12:27 5.2 °C 2.6 °C 1009 hPa NW 4.8 km/h 9.7 km/h 83% 1 mm
12:32 5.1 °C 2.2 °C 1009 hPa NW 6.4 km/h 12.9 km/h 82% 1 mm
12:37 4.8 °C 2.3 °C 1009 hPa NNW 9.7 km/h 14.5 km/h 84% 1 mm
12:42 4.8 °C 2.4 °C 1009 hPa NNW 8 km/h 16.1 km/h 85% 1 mm
12:47 4.9 °C 2.9 °C 1009 hPa NW 8 km/h 17.7 km/h 87% 1 mm
12:52 5.3 °C 3.3 °C 1008.7 hPa WNW 4.8 km/h 17.7 km/h 87% 1 mm
12:57 5.4 °C 3.1 °C 1008.7 hPa West 4.8 km/h 14.5 km/h 85% 1 mm
13:02 5.6 °C 2.9 °C 1008.7 hPa West 11.3 km/h 19.3 km/h 83% 1 mm
13:07 5.8 °C 3.5 °C 1008.7 hPa WNW 9.7 km/h 19.3 km/h 85% 1 mm
13:12 5.7 °C 2.7 °C 1008.7 hPa WNW 12.9 km/h 27.4 km/h 81% 1 mm
13:17 5.4 °C 2.4 °C 1008.4 hPa West 6.4 km/h 27.4 km/h 81% 1 mm
13:22 5.9 °C 3.9 °C 1008.4 hPa West 4.8 km/h 22.5 km/h 87% 1 mm
13:27 6 °C 3.2 °C 1008.4 hPa West 9.7 km/h 16.1 km/h 82% 1 mm
13:32 5.9 °C 2.7 °C 1008.4 hPa West 11.3 km/h 22.5 km/h 80% 1 mm
13:37 5.7 °C 2.5 °C 1008.4 hPa West 8 km/h 22.5 km/h 80% 1 mm
13:42 5.4 °C 2.6 °C 1008.4 hPa NW 8 km/h 17.7 km/h 82% 1 mm
13:52 5.6 °C 2.7 °C 1008.4 hPa West 8 km/h 16.1 km/h 82% 1 mm
13:57 5.5 °C 2.8 °C 1008.4 hPa West 8 km/h 14.5 km/h 83% 1 mm
14:12 5.1 °C 2.9 °C 1008.7 hPa WNW 4.8 km/h 25.7 km/h 86% 1.3 mm
14:17 5.1 °C 2.7 °C 1008.4 hPa WNW 11.3 km/h 25.7 km/h 85% 1.3 mm
14:22 5.1 °C 2.9 °C 1008.4 hPa WNW 11.3 km/h 20.9 km/h 86% 1.3 mm
14:27 5 °C 3 °C 1008.4 hPa NW 9.7 km/h 20.9 km/h 87% 1.3 mm
14:32 5.2 °C 3.6 °C 1008.4 hPa WNW 3.2 km/h 19.3 km/h 89% 1.3 mm
14:37 5.3 °C 3.4 °C 1008.4 hPa WNW 8 km/h 16.1 km/h 88% 1.3 mm
14:47 5.2 °C 3.3 °C 1008.4 hPa WNW 8 km/h 20.9 km/h 88% 1.5 mm
14:52 5.2 °C 3.3 °C 1008.4 hPa NNW 6.4 km/h 20.9 km/h 88% 1.8 mm
14:57 5.2 °C 3.3 °C 1008.4 hPa NW 6.4 km/h 14.5 km/h 88% 1.8 mm
15:02 5.1 °C 3.2 °C 1008.4 hPa NW 9.7 km/h 20.9 km/h 88% 2 mm
15:07 4.9 °C 3.1 °C 1008.4 hPa NW 8 km/h 20.9 km/h 88% 2 mm
15:12 4.9 °C 3.1 °C 1008.4 hPa NW 11.3 km/h 20.9 km/h 88% 2.3 mm
15:17 4.8 °C 3.2 °C 1008.4 hPa NNW 6.4 km/h 24.1 km/h 89% 2.5 mm
15:22 4.8 °C 3.1 °C 1008.4 hPa NNW 3.2 km/h 24.1 km/h 89% 2.5 mm
15:32 4.7 °C 3 °C 1008.4 hPa NW 6.4 km/h 16.1 km/h 89% 3 mm
15:37 4.6 °C 3.1 °C 1008.7 hPa NNW 6.4 km/h 12.9 km/h 90% 3.3 mm
15:42 4.5 °C 3 °C 1008.7 hPa NNW 12.9 km/h 20.9 km/h 90% 3.6 mm
15:47 4.4 °C 2.9 °C 1008.7 hPa NNW 9.7 km/h 20.9 km/h 90% 3.8 mm
15:57 4.3 °C 2.9 °C 1008.7 hPa NNW 9.7 km/h 19.3 km/h 91% 4.3 mm
16:07 4.7 °C 3.5 °C 1008.7 hPa NNW 8 km/h 24.1 km/h 92% 4.6 mm
16:12 4.8 °C 3.4 °C 1008.7 hPa NNW 9.7 km/h 24.1 km/h 91% 4.6 mm
16:27 4.9 °C 3.6 °C 1008.7 hPa NW 4.8 km/h 16.1 km/h 91% 4.6 mm
16:37 4.9 °C 3.6 °C 1008.7 hPa NW 4.8 km/h 16.1 km/h 91% 4.6 mm
16:42 4.9 °C 3.6 °C 1008.7 hPa NW 4.8 km/h 16.1 km/h 91% 4.6 mm
16:47 4.8 °C 3.5 °C 1009 hPa NNW 4.8 km/h 14.5 km/h 91% 4.8 mm
16:57 4.7 °C 3.2 °C 1009 hPa North 6.4 km/h 25.7 km/h 90% 5.3 mm
17:07 4.1 °C 2.6 °C 1009.4 hPa NNW 9.7 km/h 27.4 km/h 90% 5.8 mm
17:12 4.1 °C 2.7 °C 1009.4 hPa NNW 4.8 km/h 27.4 km/h 91% 5.8 mm
17:17 4.2 °C 2.8 °C 1009.4 hPa NNW 9.7 km/h 22.5 km/h 91% 6.1 mm
17:22 4.2 °C 3.1 °C 1009.4 hPa NW 9.7 km/h 22.5 km/h 92% 6.1 mm
17:32 4.4 °C 3.3 °C 1009.4 hPa NNW 3.2 km/h 12.9 km/h 92% 6.1 mm
17:37 4.6 °C 3.4 °C 1009.4 hPa NNW 3.2 km/h 9.7 km/h 92% 6.1 mm
17:42 4.6 °C 3.4 °C 1009.4 hPa NNW 4.8 km/h 9.7 km/h 92% 6.1 mm
17:47 4.6 °C 3.4 °C 1009.4 hPa NW 3.2 km/h 14.5 km/h 92% 6.1 mm
18:02 4.7 °C 3.5 °C 1009.7 hPa NNE 6.4 km/h 16.1 km/h 92% 6.1 mm
18:07 4.7 °C 3.5 °C 1009.7 hPa North 4.8 km/h 16.1 km/h 92% 6.1 mm
18:17 4.8 °C 3.6 °C 1009.7 hPa North 4.8 km/h 12.9 km/h 92% 6.1 mm
18:37 4.9 °C 3.8 °C 1009.7 hPa NNW 1.6 km/h 14.5 km/h 92% 6.1 mm
18:42 4.8 °C 3.7 °C 1009.7 hPa NE 1.6 km/h 11.3 km/h 92% 6.1 mm
18:47 4.9 °C 3.8 °C 1009.7 hPa Calm   11.3 km/h 92% 6.1 mm
18:52 5.2 °C 4.1 °C 1009.7 hPa Calm   9.7 km/h 92% 6.1 mm
18:57 5.6 °C 4.3 °C 1010 hPa Calm   8 km/h 92% 6.1 mm
19:02 5.5 °C 4.2 °C 1010 hPa North 1.6 km/h 6.4 km/h 91% 6.1 mm
19:07 5.3 °C 3.8 °C 1010 hPa Calm   8 km/h 90% 6.1 mm
19:12 5.1 °C 3.6 °C 1010 hPa Calm   8 km/h 90% 6.1 mm
19:17 5 °C 3.5 °C 1010 hPa NNW 1.6 km/h 6.4 km/h 90% 6.1 mm
19:32 4.8 °C 3.4 °C 1010.4 hPa North 1.6 km/h 8 km/h 91% 6.1 mm
19:42 4.7 °C 3.4 °C 1010.4 hPa Calm   6.4 km/h 91% 6.1 mm
19:47 4.7 °C 3.4 °C 1010.4 hPa Calm   6.4 km/h 91% 6.1 mm
19:52 4.7 °C 3.3 °C 1010.4 hPa Calm   4.8 km/h 91% 6.1 mm
19:57 4.7 °C 3.3 °C 1010.4 hPa Calm   4.8 km/h 91% 6.1 mm
20:02 4.7 °C 3.3 °C 1010.7 hPa NE 1.6 km/h 8 km/h 91% 6.1 mm
20:22 4.5 °C 3.3 °C 1011.1 hPa Calm   3.2 km/h 92% 6.1 mm
20:27 4.4 °C 3.3 °C 1011.1 hPa Calm     92% 6.1 mm
20:32 4.4 °C 3.3 °C 1011.1 hPa Calm   1.6 km/h 92% 6.1 mm
20:37 4.4 °C 3.3 °C 1011.1 hPa Calm   4.8 km/h 92% 6.1 mm
20:42 4.4 °C 3.3 °C 1011.1 hPa Calm   4.8 km/h 92% 6.1 mm
20:47 4.4 °C 3.2 °C 1011.4 hPa Calm   4.8 km/h 92% 6.1 mm
20:52 4.4 °C 3.2 °C 1011.4 hPa Calm   4.8 km/h 92% 6.1 mm
20:57 4.4 °C 3.2 °C 1011.4 hPa Calm   4.8 km/h 92% 6.1 mm
21:02 4.4 °C 3.3 °C 1011.4 hPa Calm   4.8 km/h 93% 6.1 mm
21:12 4.4 °C 3.3 °C 1011.4 hPa NNE 1.6 km/h 4.8 km/h 93% 6.1 mm
21:17 4.3 °C 3.3 °C 1011.4 hPa NNE 1.6 km/h 4.8 km/h 93% 6.1 mm
21:27 4.3 °C 3.3 °C 1011.4 hPa Calm   3.2 km/h 93% 6.4 mm
21:37 4.3 °C 3.2 °C 1011.4 hPa NNE 1.6 km/h 4.8 km/h 93% 6.4 mm
21:42 4.3 °C 3.2 °C 1011.4 hPa Calm   3.2 km/h 93% 6.4 mm
21:52 4.2 °C 3.2 °C 1011.4 hPa Calm   3.2 km/h 93% 6.4 mm
22:02 4.2 °C 3.2 °C 1011.4 hPa Calm   4.8 km/h 93% 6.4 mm
22:17 4.2 °C 3.2 °C 1011.4 hPa Calm   1.6 km/h 93% 6.4 mm
22:22 4.2 °C 3.2 °C 1011.4 hPa Calm   1.6 km/h 93% 6.4 mm
22:27 4.2 °C 3.2 °C 1011.4 hPa Calm     93% 6.4 mm
22:32 4.2 °C 3.1 °C 1011.4 hPa Calm     93% 6.4 mm
22:37 4.2 °C 3.1 °C 1011.4 hPa Calm     93% 6.4 mm
22:42 4.2 °C 3.1 °C 1011.4 hPa Calm     93% 6.4 mm
22:47 4.2 °C 3.1 °C 1011.4 hPa Calm     93% 6.4 mm
22:52 4.1 °C 3.1 °C 1011.4 hPa Calm     93% 6.4 mm
22:57 4.1 °C 3.1 °C 1011.4 hPa Calm     93% 6.4 mm
23:07 4.1 °C 3 °C 1011.4 hPa Calm   3.2 km/h 93% 6.4 mm
23:12 4.1 °C 3 °C 1011.4 hPa Calm   3.2 km/h 93% 6.4 mm
23:17 4 °C 2.9 °C 1011.4 hPa Calm   3.2 km/h 93% 6.4 mm
23:22 4.1 °C 3 °C 1011.4 hPa Calm   3.2 km/h 93% 6.4 mm
23:37 4.1 °C 3.2 °C 1011.4 hPa North 1.6 km/h 6.4 km/h 94% 6.4 mm
23:42 4.2 °C 3.3 °C 1011.4 hPa Calm   6.4 km/h 94% 6.4 mm
23:47 4.2 °C 3.3 °C 1011.4 hPa Calm   6.4 km/h 94% 6.4 mm
23:52 4.2 °C 3.3 °C 1011.4 hPa North 1.6 km/h 6.4 km/h 94% 6.4 mm
Westford Weather
Compliments of Weather Underground

 
 
Current Radar Loop:

Copyright © WestfordWeather.net 2007-2014. All rights reserved.